sensor_id;sensor_type;location;lat;lon;timestamp;P1;durP1;ratioP1;P2;durP2;ratioP2
21999;SDS011;11164;48.818;2.322;2023-03-31T00:01:02;14.05;;;2.40;;
21999;SDS011;11164;48.818;2.322;2023-03-31T00:03:28;11.68;;;2.20;;
21999;SDS011;11164;48.818;2.322;2023-03-31T00:05:55;14.63;;;2.83;;
21999;SDS011;11164;48.818;2.322;2023-03-31T00:08:28;16.17;;;2.80;;
21999;SDS011;11164;48.818;2.322;2023-03-31T00:10:59;10.13;;;2.05;;
21999;SDS011;11164;48.818;2.322;2023-03-31T00:13:26;13.52;;;1.98;;
21999;SDS011;11164;48.818;2.322;2023-03-31T00:15:56;16.38;;;3.25;;
21999;SDS011;11164;48.818;2.322;2023-03-31T00:18:22;11.68;;;2.72;;
21999;SDS011;11164;48.818;2.322;2023-03-31T00:20:49;15.90;;;3.42;;
21999;SDS011;11164;48.818;2.322;2023-03-31T00:23:16;14.15;;;2.80;;
21999;SDS011;11164;48.818;2.322;2023-03-31T00:25:43;18.75;;;2.90;;
21999;SDS011;11164;48.818;2.322;2023-03-31T00:28:08;14.88;;;2.42;;
21999;SDS011;11164;48.818;2.322;2023-03-31T00:30:34;13.57;;;2.25;;
21999;SDS011;11164;48.818;2.322;2023-03-31T00:32:59;15.45;;;2.70;;
21999;SDS011;11164;48.818;2.322;2023-03-31T00:35:25;14.18;;;2.67;;
21999;SDS011;11164;48.818;2.322;2023-03-31T00:37:51;8.70;;;1.98;;
21999;SDS011;11164;48.818;2.322;2023-03-31T00:40:17;14.95;;;2.28;;
21999;SDS011;11164;48.818;2.322;2023-03-31T00:42:43;12.57;;;2.35;;
21999;SDS011;11164;48.818;2.322;2023-03-31T00:47:50;13.30;;;2.10;;
21999;SDS011;11164;48.818;2.322;2023-03-31T00:50:26;10.35;;;2.33;;
21999;SDS011;11164;48.818;2.322;2023-03-31T00:52:55;12.05;;;2.83;;
21999;SDS011;11164;48.818;2.322;2023-03-31T00:55:29;10.23;;;1.75;;
21999;SDS011;11164;48.818;2.322;2023-03-31T00:57:57;15.13;;;2.30;;
21999;SDS011;11164;48.818;2.322;2023-03-31T01:00:26;11.80;;;2.28;;
21999;SDS011;11164;48.818;2.322;2023-03-31T01:02:53;10.10;;;2.45;;
21999;SDS011;11164;48.818;2.322;2023-03-31T01:05:26;11.35;;;2.25;;
21999;SDS011;11164;48.818;2.322;2023-03-31T01:07:56;13.23;;;2.13;;
21999;SDS011;11164;48.818;2.322;2023-03-31T01:10:23;12.88;;;2.22;;
21999;SDS011;11164;48.818;2.322;2023-03-31T01:12:50;8.93;;;1.73;;
21999;SDS011;11164;48.818;2.322;2023-03-31T01:15:19;9.50;;;2.20;;
21999;SDS011;11164;48.818;2.322;2023-03-31T01:17:46;11.70;;;2.08;;
21999;SDS011;11164;48.818;2.322;2023-03-31T01:31:19;9.63;;;2.15;;
21999;SDS011;11164;48.818;2.322;2023-03-31T01:45:46;7.15;;;1.40;;
21999;SDS011;11164;48.818;2.322;2023-03-31T01:48:58;9.93;;;2.13;;
21999;SDS011;11164;48.818;2.322;2023-03-31T01:51:06;9.20;;;1.92;;
21999;SDS011;11164;48.818;2.322;2023-03-31T01:53:47;12.27;;;2.30;;
21999;SDS011;11164;48.818;2.322;2023-03-31T01:56:45;10.18;;;2.35;;
21999;SDS011;11164;48.818;2.322;2023-03-31T01:59:17;10.50;;;2.03;;
21999;SDS011;11164;48.818;2.322;2023-03-31T02:01:56;10.18;;;1.85;;
21999;SDS011;11164;48.818;2.322;2023-03-31T02:06:58;13.55;;;2.20;;
21999;SDS011;11164;48.818;2.322;2023-03-31T02:09:34;7.47;;;1.98;;
21999;SDS011;11164;48.818;2.322;2023-03-31T02:12:04;14.63;;;2.35;;
21999;SDS011;11164;48.818;2.322;2023-03-31T02:14:33;7.72;;;1.83;;
21999;SDS011;11164;48.818;2.322;2023-03-31T02:17:02;8.85;;;2.10;;
21999;SDS011;11164;48.818;2.322;2023-03-31T02:19:31;9.30;;;1.95;;
21999;SDS011;11164;48.818;2.322;2023-03-31T02:22:03;12.27;;;2.00;;
21999;SDS011;11164;48.818;2.322;2023-03-31T02:24:30;11.63;;;2.17;;
21999;SDS011;11164;48.818;2.322;2023-03-31T02:27:02;11.45;;;2.75;;
21999;SDS011;11164;48.818;2.322;2023-03-31T02:29:29;8.05;;;1.88;;
21999;SDS011;11164;48.818;2.322;2023-03-31T02:34:48;7.47;;;1.92;;
21999;SDS011;11164;48.818;2.322;2023-03-31T02:37:13;7.03;;;1.70;;
21999;SDS011;11164;48.818;2.322;2023-03-31T02:39:40;6.78;;;2.13;;
21999;SDS011;11164;48.818;2.322;2023-03-31T02:42:09;10.45;;;2.08;;
21999;SDS011;11164;48.818;2.322;2023-03-31T02:44:36;9.20;;;2.08;;
21999;SDS011;11164;48.818;2.322;2023-03-31T02:47:04;8.95;;;2.25;;
21999;SDS011;11164;48.818;2.322;2023-03-31T02:49:31;8.35;;;2.10;;
21999;SDS011;11164;48.818;2.322;2023-03-31T02:52:02;7.78;;;2.33;;
21999;SDS011;11164;48.818;2.322;2023-03-31T03:00:01;10.13;;;2.10;;
21999;SDS011;11164;48.818;2.322;2023-03-31T03:11:18;11.90;;;2.47;;
21999;SDS011;11164;48.818;2.322;2023-03-31T03:14:00;12.65;;;2.67;;
21999;SDS011;11164;48.818;2.322;2023-03-31T03:16:38;9.38;;;2.00;;
21999;SDS011;11164;48.818;2.322;2023-03-31T03:19:07;13.00;;;2.78;;
21999;SDS011;11164;48.818;2.322;2023-03-31T03:21:33;15.70;;;2.90;;
21999;SDS011;11164;48.818;2.322;2023-03-31T03:23:58;9.57;;;2.00;;
21999;SDS011;11164;48.818;2.322;2023-03-31T03:26:25;10.32;;;2.50;;
21999;SDS011;11164;48.818;2.322;2023-03-31T03:28:54;12.30;;;2.55;;
21999;SDS011;11164;48.818;2.322;2023-03-31T03:31:21;9.23;;;2.47;;
21999;SDS011;11164;48.818;2.322;2023-03-31T03:33:48;13.52;;;2.88;;
21999;SDS011;11164;48.818;2.322;2023-03-31T03:36:14;13.70;;;3.03;;
21999;SDS011;11164;48.818;2.322;2023-03-31T03:38:40;11.68;;;2.72;;
21999;SDS011;11164;48.818;2.322;2023-03-31T03:41:05;11.05;;;2.47;;
21999;SDS011;11164;48.818;2.322;2023-03-31T03:43:31;12.77;;;2.88;;
21999;SDS011;11164;48.818;2.322;2023-03-31T03:45:56;12.10;;;2.40;;
21999;SDS011;11164;48.818;2.322;2023-03-31T03:48:22;19.50;;;7.75;;
21999;SDS011;11164;48.818;2.322;2023-03-31T03:50:47;14.52;;;2.90;;
21999;SDS011;11164;48.818;2.322;2023-03-31T03:53:13;16.67;;;3.10;;
21999;SDS011;11164;48.818;2.322;2023-03-31T03:55:39;12.85;;;2.75;;
21999;SDS011;11164;48.818;2.322;2023-03-31T03:58:05;13.45;;;2.65;;
21999;SDS011;11164;48.818;2.322;2023-03-31T04:00:30;17.13;;;2.95;;
21999;SDS011;11164;48.818;2.322;2023-03-31T04:02:55;15.57;;;3.30;;
21999;SDS011;11164;48.818;2.322;2023-03-31T04:05:21;12.10;;;2.90;;
21999;SDS011;11164;48.818;2.322;2023-03-31T04:07:46;16.77;;;2.83;;
21999;SDS011;11164;48.818;2.322;2023-03-31T04:10:12;11.13;;;2.40;;
21999;SDS011;11164;48.818;2.322;2023-03-31T04:12:37;16.75;;;3.05;;
21999;SDS011;11164;48.818;2.322;2023-03-31T04:15:03;16.00;;;2.95;;
21999;SDS011;11164;48.818;2.322;2023-03-31T04:17:29;14.30;;;3.08;;
21999;SDS011;11164;48.818;2.322;2023-03-31T04:19:58;14.90;;;3.60;;
21999;SDS011;11164;48.818;2.322;2023-03-31T04:22:26;13.80;;;2.95;;
21999;SDS011;11164;48.818;2.322;2023-03-31T04:24:53;18.20;;;3.00;;
21999;SDS011;11164;48.818;2.322;2023-03-31T04:27:22;16.67;;;3.80;;
21999;SDS011;11164;48.818;2.322;2023-03-31T04:29:51;15.85;;;3.30;;
21999;SDS011;11164;48.818;2.322;2023-03-31T04:32:18;14.82;;;3.08;;
21999;SDS011;11164;48.818;2.322;2023-03-31T04:34:45;14.40;;;3.40;;
21999;SDS011;11164;48.818;2.322;2023-03-31T04:37:11;17.52;;;3.13;;
21999;SDS011;11164;48.818;2.322;2023-03-31T04:39:36;22.52;;;3.58;;
21999;SDS011;11164;48.818;2.322;2023-03-31T04:42:01;16.02;;;2.80;;
21999;SDS011;11164;48.818;2.322;2023-03-31T04:44:27;14.77;;;2.88;;
21999;SDS011;11164;48.818;2.322;2023-03-31T04:46:53;15.07;;;3.40;;
21999;SDS011;11164;48.818;2.322;2023-03-31T04:49:19;15.52;;;3.17;;
21999;SDS011;11164;48.818;2.322;2023-03-31T04:51:44;19.20;;;3.33;;
21999;SDS011;11164;48.818;2.322;2023-03-31T04:54:10;21.13;;;3.78;;
21999;SDS011;11164;48.818;2.322;2023-03-31T04:56:35;11.82;;;2.50;;
21999;SDS011;11164;48.818;2.322;2023-03-31T04:59:01;19.45;;;3.67;;
21999;SDS011;11164;48.818;2.322;2023-03-31T05:01:28;23.17;;;3.72;;
21999;SDS011;11164;48.818;2.322;2023-03-31T05:03:57;21.70;;;4.28;;
21999;SDS011;11164;48.818;2.322;2023-03-31T05:06:23;14.20;;;3.10;;
21999;SDS011;11164;48.818;2.322;2023-03-31T05:08:49;22.60;;;4.32;;
21999;SDS011;11164;48.818;2.322;2023-03-31T05:11:14;23.88;;;3.75;;
21999;SDS011;11164;48.818;2.322;2023-03-31T05:13:39;11.77;;;2.75;;
21999;SDS011;11164;48.818;2.322;2023-03-31T05:16:06;21.45;;;4.28;;
21999;SDS011;11164;48.818;2.322;2023-03-31T05:18:36;21.70;;;4.15;;
21999;SDS011;11164;48.818;2.322;2023-03-31T05:21:11;18.30;;;3.88;;
21999;SDS011;11164;48.818;2.322;2023-03-31T05:23:39;25.10;;;4.60;;
21999;SDS011;11164;48.818;2.322;2023-03-31T05:26:05;20.52;;;4.03;;
21999;SDS011;11164;48.818;2.322;2023-03-31T05:28:31;18.23;;;3.30;;
21999;SDS011;11164;48.818;2.322;2023-03-31T05:30:58;20.10;;;4.18;;
21999;SDS011;11164;48.818;2.322;2023-03-31T05:33:24;18.88;;;3.15;;
21999;SDS011;11164;48.818;2.322;2023-03-31T05:35:49;25.73;;;3.92;;
21999;SDS011;11164;48.818;2.322;2023-03-31T05:38:15;22.30;;;4.15;;
21999;SDS011;11164;48.818;2.322;2023-03-31T05:40:40;26.85;;;4.70;;
21999;SDS011;11164;48.818;2.322;2023-03-31T05:43:06;20.98;;;4.65;;
21999;SDS011;11164;48.818;2.322;2023-03-31T05:45:31;26.25;;;4.35;;
21999;SDS011;11164;48.818;2.322;2023-03-31T05:47:56;27.25;;;3.60;;
21999;SDS011;11164;48.818;2.322;2023-03-31T05:50:21;21.40;;;4.22;;
21999;SDS011;11164;48.818;2.322;2023-03-31T05:52:47;20.77;;;3.33;;
21999;SDS011;11164;48.818;2.322;2023-03-31T05:55:12;17.92;;;3.63;;
21999;SDS011;11164;48.818;2.322;2023-03-31T05:57:37;26.92;;;4.43;;
21999;SDS011;11164;48.818;2.322;2023-03-31T06:00:03;14.45;;;2.65;;
21999;SDS011;11164;48.818;2.322;2023-03-31T06:02:31;15.75;;;3.63;;
21999;SDS011;11164;48.818;2.322;2023-03-31T06:04:57;21.17;;;3.72;;
21999;SDS011;11164;48.818;2.322;2023-03-31T06:07:23;20.02;;;4.78;;
21999;SDS011;11164;48.818;2.322;2023-03-31T06:09:48;24.75;;;4.55;;
21999;SDS011;11164;48.818;2.322;2023-03-31T06:15:36;16.80;;;3.42;;
21999;SDS011;11164;48.818;2.322;2023-03-31T06:18:01;19.35;;;3.53;;
21999;SDS011;11164;48.818;2.322;2023-03-31T06:20:27;22.33;;;3.90;;
21999;SDS011;11164;48.818;2.322;2023-03-31T06:22:52;21.30;;;3.30;;
21999;SDS011;11164;48.818;2.322;2023-03-31T06:25:18;27.75;;;5.00;;
21999;SDS011;11164;48.818;2.322;2023-03-31T06:27:43;21.75;;;3.83;;
21999;SDS011;11164;48.818;2.322;2023-03-31T06:30:09;22.35;;;4.43;;
21999;SDS011;11164;48.818;2.322;2023-03-31T06:32:34;18.38;;;3.75;;
21999;SDS011;11164;48.818;2.322;2023-03-31T06:35:00;23.25;;;4.15;;
21999;SDS011;11164;48.818;2.322;2023-03-31T06:37:25;26.00;;;3.67;;
21999;SDS011;11164;48.818;2.322;2023-03-31T06:39:50;24.27;;;4.15;;
21999;SDS011;11164;48.818;2.322;2023-03-31T06:42:16;22.38;;;3.33;;
21999;SDS011;11164;48.818;2.322;2023-03-31T06:44:41;24.95;;;5.18;;
21999;SDS011;11164;48.818;2.322;2023-03-31T06:47:06;20.85;;;3.92;;
21999;SDS011;11164;48.818;2.322;2023-03-31T06:49:31;21.92;;;4.03;;
21999;SDS011;11164;48.818;2.322;2023-03-31T06:51:57;24.27;;;4.95;;
21999;SDS011;11164;48.818;2.322;2023-03-31T06:54:22;18.48;;;4.03;;
21999;SDS011;11164;48.818;2.322;2023-03-31T06:56:47;21.60;;;4.00;;
21999;SDS011;11164;48.818;2.322;2023-03-31T06:59:13;23.60;;;4.53;;
21999;SDS011;11164;48.818;2.322;2023-03-31T07:01:38;19.98;;;3.80;;
21999;SDS011;11164;48.818;2.322;2023-03-31T07:04:06;21.70;;;4.07;;
21999;SDS011;11164;48.818;2.322;2023-03-31T07:06:32;23.45;;;4.28;;
21999;SDS011;11164;48.818;2.322;2023-03-31T07:08:57;24.73;;;4.15;;
21999;SDS011;11164;48.818;2.322;2023-03-31T07:11:23;17.77;;;4.03;;
21999;SDS011;11164;48.818;2.322;2023-03-31T07:13:48;21.52;;;3.75;;
21999;SDS011;11164;48.818;2.322;2023-03-31T07:16:13;18.80;;;4.07;;
21999;SDS011;11164;48.818;2.322;2023-03-31T07:18:39;20.73;;;3.20;;
21999;SDS011;11164;48.818;2.322;2023-03-31T07:21:06;20.63;;;4.50;;
21999;SDS011;11164;48.818;2.322;2023-03-31T07:23:32;14.23;;;2.72;;
21999;SDS011;11164;48.818;2.322;2023-03-31T07:25:57;9.38;;;1.65;;
21999;SDS011;11164;48.818;2.322;2023-03-31T07:28:26;12.75;;;2.83;;
21999;SDS011;11164;48.818;2.322;2023-03-31T07:30:52;15.70;;;2.95;;
21999;SDS011;11164;48.818;2.322;2023-03-31T07:33:18;12.93;;;2.58;;
21999;SDS011;11164;48.818;2.322;2023-03-31T07:35:44;13.82;;;3.00;;
21999;SDS011;11164;48.818;2.322;2023-03-31T07:38:09;10.68;;;2.55;;
21999;SDS011;11164;48.818;2.322;2023-03-31T07:40:35;11.27;;;2.20;;
21999;SDS011;11164;48.818;2.322;2023-03-31T07:43:01;11.57;;;2.58;;
21999;SDS011;11164;48.818;2.322;2023-03-31T07:45:27;13.93;;;2.47;;
21999;SDS011;11164;48.818;2.322;2023-03-31T07:47:53;11.23;;;2.15;;
21999;SDS011;11164;48.818;2.322;2023-03-31T07:50:19;12.95;;;2.25;;
21999;SDS011;11164;48.818;2.322;2023-03-31T07:52:45;8.32;;;1.35;;
21999;SDS011;11164;48.818;2.322;2023-03-31T07:55:11;16.48;;;3.35;;
21999;SDS011;11164;48.818;2.322;2023-03-31T07:57:37;17.45;;;3.40;;
21999;SDS011;11164;48.818;2.322;2023-03-31T08:00:05;19.50;;;3.30;;
21999;SDS011;11164;48.818;2.322;2023-03-31T08:02:33;11.05;;;2.88;;
21999;SDS011;11164;48.818;2.322;2023-03-31T08:04:59;10.38;;;2.45;;
21999;SDS011;11164;48.818;2.322;2023-03-31T08:07:25;13.43;;;3.35;;
21999;SDS011;11164;48.818;2.322;2023-03-31T08:09:55;16.80;;;3.63;;
21999;SDS011;11164;48.818;2.322;2023-03-31T08:12:20;14.55;;;2.90;;
21999;SDS011;11164;48.818;2.322;2023-03-31T08:14:46;18.10;;;3.67;;
21999;SDS011;11164;48.818;2.322;2023-03-31T08:17:11;13.27;;;3.47;;
21999;SDS011;11164;48.818;2.322;2023-03-31T08:19:36;20.13;;;3.40;;
21999;SDS011;11164;48.818;2.322;2023-03-31T08:22:02;18.42;;;2.75;;
21999;SDS011;11164;48.818;2.322;2023-03-31T08:24:27;10.88;;;2.65;;
21999;SDS011;11164;48.818;2.322;2023-03-31T08:26:52;17.52;;;3.72;;
21999;SDS011;11164;48.818;2.322;2023-03-31T08:29:17;13.57;;;2.13;;
21999;SDS011;11164;48.818;2.322;2023-03-31T08:31:43;19.85;;;3.35;;
21999;SDS011;11164;48.818;2.322;2023-03-31T08:34:08;18.23;;;3.78;;
21999;SDS011;11164;48.818;2.322;2023-03-31T08:36:33;16.40;;;4.60;;
21999;SDS011;11164;48.818;2.322;2023-03-31T08:39:00;19.42;;;3.88;;
21999;SDS011;11164;48.818;2.322;2023-03-31T08:41:33;20.67;;;4.40;;
21999;SDS011;11164;48.818;2.322;2023-03-31T08:44:10;19.67;;;4.35;;
21999;SDS011;11164;48.818;2.322;2023-03-31T08:47:00;17.55;;;4.03;;
21999;SDS011;11164;48.818;2.322;2023-03-31T08:49:28;10.55;;;2.38;;
21999;SDS011;11164;48.818;2.322;2023-03-31T08:52:01;15.45;;;3.05;;
21999;SDS011;11164;48.818;2.322;2023-03-31T08:54:32;18.33;;;3.72;;
21999;SDS011;11164;48.818;2.322;2023-03-31T08:57:02;16.35;;;3.72;;
21999;SDS011;11164;48.818;2.322;2023-03-31T08:59:35;15.30;;;3.47;;
21999;SDS011;11164;48.818;2.322;2023-03-31T09:02:25;16.50;;;3.42;;
21999;SDS011;11164;48.818;2.322;2023-03-31T09:10:38;11.75;;;2.58;;
21999;SDS011;11164;48.818;2.322;2023-03-31T09:15:43;15.90;;;2.65;;
21999;SDS011;11164;48.818;2.322;2023-03-31T09:18:18;14.67;;;2.83;;
21999;SDS011;11164;48.818;2.322;2023-03-31T09:25:54;13.63;;;2.92;;
21999;SDS011;11164;48.818;2.322;2023-03-31T09:28:28;16.10;;;3.35;;
21999;SDS011;11164;48.818;2.322;2023-03-31T09:30:58;14.25;;;2.72;;
21999;SDS011;11164;48.818;2.322;2023-03-31T09:33:28;21.17;;;3.50;;
21999;SDS011;11164;48.818;2.322;2023-03-31T09:35:58;17.90;;;3.15;;
21999;SDS011;11164;48.818;2.322;2023-03-31T09:38:24;18.65;;;3.58;;
21999;SDS011;11164;48.818;2.322;2023-03-31T09:40:53;14.85;;;2.78;;
21999;SDS011;11164;48.818;2.322;2023-03-31T09:43:21;14.25;;;3.03;;
21999;SDS011;11164;48.818;2.322;2023-03-31T09:45:48;9.57;;;2.22;;
21999;SDS011;11164;48.818;2.322;2023-03-31T09:48:15;12.18;;;2.50;;
21999;SDS011;11164;48.818;2.322;2023-03-31T09:50:52;10.57;;;2.17;;
21999;SDS011;11164;48.818;2.322;2023-03-31T09:56:05;13.38;;;2.30;;
21999;SDS011;11164;48.818;2.322;2023-03-31T09:58:38;11.52;;;3.13;;
21999;SDS011;11164;48.818;2.322;2023-03-31T10:01:07;14.38;;;2.75;;
21999;SDS011;11164;48.818;2.322;2023-03-31T10:04:09;10.75;;;2.13;;
21999;SDS011;11164;48.818;2.322;2023-03-31T10:06:31;10.50;;;2.60;;
21999;SDS011;11164;48.818;2.322;2023-03-31T10:09:04;12.68;;;2.22;;
21999;SDS011;11164;48.818;2.322;2023-03-31T10:11:30;9.10;;;1.95;;
21999;SDS011;11164;48.818;2.322;2023-03-31T10:14:03;13.40;;;3.22;;
21999;SDS011;11164;48.818;2.322;2023-03-31T10:16:31;13.52;;;2.28;;
21999;SDS011;11164;48.818;2.322;2023-03-31T10:22:00;14.85;;;2.58;;
21999;SDS011;11164;48.818;2.322;2023-03-31T10:24:40;11.70;;;2.03;;
21999;SDS011;11164;48.818;2.322;2023-03-31T10:27:17;9.15;;;2.25;;
21999;SDS011;11164;48.818;2.322;2023-03-31T10:29:46;8.15;;;2.03;;
21999;SDS011;11164;48.818;2.322;2023-03-31T10:32:31;9.68;;;1.83;;
21999;SDS011;11164;48.818;2.322;2023-03-31T10:35:03;9.77;;;1.90;;
21999;SDS011;11164;48.818;2.322;2023-03-31T10:37:30;7.32;;;2.20;;
21999;SDS011;11164;48.818;2.322;2023-03-31T10:39:59;13.40;;;2.67;;
21999;SDS011;11164;48.818;2.322;2023-03-31T10:42:28;9.82;;;1.67;;
21999;SDS011;11164;48.818;2.322;2023-03-31T10:45:11;6.57;;;1.67;;
21999;SDS011;11164;48.818;2.322;2023-03-31T10:48:00;9.27;;;2.10;;
21999;SDS011;11164;48.818;2.322;2023-03-31T10:50:27;5.85;;;1.55;;
21999;SDS011;11164;48.818;2.322;2023-03-31T10:53:00;11.88;;;2.28;;
21999;SDS011;11164;48.818;2.322;2023-03-31T10:55:30;11.70;;;2.30;;
21999;SDS011;11164;48.818;2.322;2023-03-31T10:58:01;12.80;;;2.33;;
21999;SDS011;11164;48.818;2.322;2023-03-31T11:00:51;11.18;;;2.72;;
21999;SDS011;11164;48.818;2.322;2023-03-31T11:06:21;8.93;;;2.20;;
21999;SDS011;11164;48.818;2.322;2023-03-31T11:14:57;4.57;;;1.27;;
21999;SDS011;11164;48.818;2.322;2023-03-31T11:20:35;6.40;;;1.50;;
21999;SDS011;11164;48.818;2.322;2023-03-31T11:23:17;14.15;;;1.75;;
21999;SDS011;11164;48.818;2.322;2023-03-31T11:36:43;6.75;;;1.55;;
21999;SDS011;11164;48.818;2.322;2023-03-31T11:39:26;6.85;;;1.63;;
21999;SDS011;11164;48.818;2.322;2023-03-31T11:42:20;12.00;;;1.90;;
21999;SDS011;11164;48.818;2.322;2023-03-31T11:44:55;11.43;;;2.20;;
21999;SDS011;11164;48.818;2.322;2023-03-31T11:47:26;4.15;;;0.93;;
21999;SDS011;11164;48.818;2.322;2023-03-31T11:49:58;6.63;;;1.80;;
21999;SDS011;11164;48.818;2.322;2023-03-31T11:52:29;11.43;;;2.70;;
21999;SDS011;11164;48.818;2.322;2023-03-31T11:54:59;7.35;;;1.63;;
21999;SDS011;11164;48.818;2.322;2023-03-31T12:00:32;7.20;;;1.83;;
21999;SDS011;11164;48.818;2.322;2023-03-31T12:05:50;5.95;;;1.10;;
21999;SDS011;11164;48.818;2.322;2023-03-31T12:08:31;5.45;;;1.30;;
21999;SDS011;11164;48.818;2.322;2023-03-31T12:11:06;5.65;;;1.48;;
21999;SDS011;11164;48.818;2.322;2023-03-31T12:13:43;8.35;;;1.42;;
21999;SDS011;11164;48.818;2.322;2023-03-31T12:16:24;6.88;;;1.20;;
21999;SDS011;11164;48.818;2.322;2023-03-31T12:19:16;6.97;;;1.42;;
21999;SDS011;11164;48.818;2.322;2023-03-31T12:21:48;5.80;;;1.38;;
21999;SDS011;11164;48.818;2.322;2023-03-31T12:24:17;6.25;;;1.13;;
21999;SDS011;11164;48.818;2.322;2023-03-31T12:26:55;8.15;;;1.63;;
21999;SDS011;11164;48.818;2.322;2023-03-31T12:29:26;7.40;;;1.40;;
21999;SDS011;11164;48.818;2.322;2023-03-31T12:31:56;7.15;;;1.40;;
21999;SDS011;11164;48.818;2.322;2023-03-31T12:34:25;7.60;;;1.88;;
21999;SDS011;11164;48.818;2.322;2023-03-31T12:39:48;5.57;;;1.25;;
21999;SDS011;11164;48.818;2.322;2023-03-31T12:42:41;6.85;;;1.45;;
21999;SDS011;11164;48.818;2.322;2023-03-31T12:45:28;5.55;;;1.33;;
21999;SDS011;11164;48.818;2.322;2023-03-31T12:48:02;6.72;;;1.40;;
21999;SDS011;11164;48.818;2.322;2023-03-31T12:59:41;7.03;;;1.13;;
21999;SDS011;11164;48.818;2.322;2023-03-31T13:04:34;4.03;;;0.82;;
21999;SDS011;11164;48.818;2.322;2023-03-31T13:07:01;8.10;;;1.70;;
21999;SDS011;11164;48.818;2.322;2023-03-31T13:09:40;5.80;;;0.90;;
21999;SDS011;11164;48.818;2.322;2023-03-31T13:12:08;9.88;;;1.95;;
21999;SDS011;11164;48.818;2.322;2023-03-31T13:14:38;6.68;;;1.48;;
21999;SDS011;11164;48.818;2.322;2023-03-31T13:19:50;11.18;;;1.45;;
21999;SDS011;11164;48.818;2.322;2023-03-31T13:22:27;7.05;;;1.02;;
21999;SDS011;11164;48.818;2.322;2023-03-31T13:27:55;6.15;;;1.10;;
21999;SDS011;11164;48.818;2.322;2023-03-31T13:33:04;8.88;;;1.50;;
21999;SDS011;11164;48.818;2.322;2023-03-31T13:35:34;12.37;;;2.03;;
21999;SDS011;11164;48.818;2.322;2023-03-31T13:41:12;3.65;;;1.08;;
21999;SDS011;11164;48.818;2.322;2023-03-31T13:46:25;9.05;;;1.75;;
21999;SDS011;11164;48.818;2.322;2023-03-31T13:51:58;8.52;;;2.00;;
21999;SDS011;11164;48.818;2.322;2023-03-31T14:10:36;7.47;;;1.10;;
21999;SDS011;11164;48.818;2.322;2023-03-31T14:13:07;3.78;;;0.73;;
21999;SDS011;11164;48.818;2.322;2023-03-31T14:15:35;3.75;;;0.50;;
21999;SDS011;11164;48.818;2.322;2023-03-31T14:18:03;5.07;;;1.00;;
21999;SDS011;11164;48.818;2.322;2023-03-31T14:20:41;5.22;;;0.82;;
21999;SDS011;11164;48.818;2.322;2023-03-31T14:23:25;5.70;;;1.08;;
21999;SDS011;11164;48.818;2.322;2023-03-31T14:26:00;5.55;;;1.15;;
21999;SDS011;11164;48.818;2.322;2023-03-31T14:31:20;5.03;;;1.02;;
21999;SDS011;11164;48.818;2.322;2023-03-31T14:37:11;4.45;;;0.98;;
21999;SDS011;11164;48.818;2.322;2023-03-31T14:39:45;5.38;;;1.13;;
21999;SDS011;11164;48.818;2.322;2023-03-31T14:42:15;4.78;;;1.20;;
21999;SDS011;11164;48.818;2.322;2023-03-31T14:44:43;4.80;;;0.85;;
21999;SDS011;11164;48.818;2.322;2023-03-31T14:47:22;4.70;;;1.00;;
21999;SDS011;11164;48.818;2.322;2023-03-31T14:52:50;5.53;;;1.00;;
21999;SDS011;11164;48.818;2.322;2023-03-31T14:55:17;5.63;;;1.20;;
21999;SDS011;11164;48.818;2.322;2023-03-31T14:57:47;4.43;;;1.05;;
21999;SDS011;11164;48.818;2.322;2023-03-31T15:00:15;6.82;;;1.40;;
21999;SDS011;11164;48.818;2.322;2023-03-31T15:02:49;7.18;;;1.17;;
21999;SDS011;11164;48.818;2.322;2023-03-31T15:05:25;7.40;;;0.98;;
21999;SDS011;11164;48.818;2.322;2023-03-31T15:07:55;9.73;;;1.17;;
21999;SDS011;11164;48.818;2.322;2023-03-31T15:10:22;6.10;;;1.83;;
21999;SDS011;11164;48.818;2.322;2023-03-31T15:12:47;11.65;;;1.77;;
21999;SDS011;11164;48.818;2.322;2023-03-31T15:15:15;5.70;;;1.08;;
21999;SDS011;11164;48.818;2.322;2023-03-31T15:17:42;4.15;;;1.00;;
21999;SDS011;11164;48.818;2.322;2023-03-31T15:22:48;5.50;;;0.90;;
21999;SDS011;11164;48.818;2.322;2023-03-31T15:25:13;7.70;;;1.08;;
21999;SDS011;11164;48.818;2.322;2023-03-31T15:27:48;2.25;;;0.55;;
21999;SDS011;11164;48.818;2.322;2023-03-31T15:30:23;2.72;;;0.70;;
21999;SDS011;11164;48.818;2.322;2023-03-31T15:32:51;4.68;;;0.68;;
21999;SDS011;11164;48.818;2.322;2023-03-31T15:35:20;7.25;;;1.10;;
21999;SDS011;11164;48.818;2.322;2023-03-31T15:37:49;4.43;;;1.05;;
21999;SDS011;11164;48.818;2.322;2023-03-31T15:40:22;2.70;;;0.70;;
21999;SDS011;11164;48.818;2.322;2023-03-31T15:42:55;3.33;;;0.90;;
21999;SDS011;11164;48.818;2.322;2023-03-31T15:45:35;8.57;;;1.20;;
21999;SDS011;11164;48.818;2.322;2023-03-31T15:48:03;6.32;;;1.00;;
21999;SDS011;11164;48.818;2.322;2023-03-31T15:50:29;4.75;;;0.60;;
21999;SDS011;11164;48.818;2.322;2023-03-31T15:52:57;5.35;;;0.95;;
21999;SDS011;11164;48.818;2.322;2023-03-31T15:55:25;5.68;;;0.98;;
21999;SDS011;11164;48.818;2.322;2023-03-31T15:57:59;3.15;;;0.65;;
21999;SDS011;11164;48.818;2.322;2023-03-31T16:03:17;3.67;;;0.70;;
21999;SDS011;11164;48.818;2.322;2023-03-31T16:08:27;4.10;;;1.00;;
21999;SDS011;11164;48.818;2.322;2023-03-31T16:11:03;4.30;;;0.95;;
21999;SDS011;11164;48.818;2.322;2023-03-31T16:13:32;4.70;;;0.95;;
21999;SDS011;11164;48.818;2.322;2023-03-31T16:15:59;3.85;;;0.85;;
21999;SDS011;11164;48.818;2.322;2023-03-31T16:20:54;4.85;;;1.00;;
21999;SDS011;11164;48.818;2.322;2023-03-31T16:23:29;4.38;;;1.13;;
21999;SDS011;11164;48.818;2.322;2023-03-31T16:25:57;5.07;;;0.70;;
21999;SDS011;11164;48.818;2.322;2023-03-31T16:28:27;5.43;;;0.82;;
21999;SDS011;11164;48.818;2.322;2023-03-31T16:30:55;4.70;;;1.05;;
21999;SDS011;11164;48.818;2.322;2023-03-31T16:33:22;3.55;;;0.82;;
21999;SDS011;11164;48.818;2.322;2023-03-31T16:35:52;5.57;;;1.00;;
21999;SDS011;11164;48.818;2.322;2023-03-31T16:38:23;6.70;;;0.95;;
21999;SDS011;11164;48.818;2.322;2023-03-31T16:40:52;5.95;;;1.58;;
21999;SDS011;11164;48.818;2.322;2023-03-31T16:43:24;3.42;;;0.75;;
21999;SDS011;11164;48.818;2.322;2023-03-31T16:45:52;2.58;;;0.57;;
21999;SDS011;11164;48.818;2.322;2023-03-31T16:48:20;4.88;;;0.57;;
21999;SDS011;11164;48.818;2.322;2023-03-31T16:50:52;5.25;;;1.20;;
21999;SDS011;11164;48.818;2.322;2023-03-31T16:53:22;3.55;;;0.98;;
21999;SDS011;11164;48.818;2.322;2023-03-31T16:55:50;4.70;;;0.80;;
21999;SDS011;11164;48.818;2.322;2023-03-31T16:58:16;4.38;;;1.00;;
21999;SDS011;11164;48.818;2.322;2023-03-31T17:00:42;2.85;;;0.93;;
21999;SDS011;11164;48.818;2.322;2023-03-31T17:03:09;4.57;;;1.10;;
21999;SDS011;11164;48.818;2.322;2023-03-31T17:05:39;4.53;;;0.98;;
21999;SDS011;11164;48.818;2.322;2023-03-31T17:08:06;3.72;;;0.80;;
21999;SDS011;11164;48.818;2.322;2023-03-31T17:10:32;6.20;;;1.02;;
21999;SDS011;11164;48.818;2.322;2023-03-31T17:12:57;4.18;;;0.93;;
21999;SDS011;11164;48.818;2.322;2023-03-31T17:15:23;5.78;;;1.15;;
21999;SDS011;11164;48.818;2.322;2023-03-31T17:17:48;6.72;;;1.08;;
21999;SDS011;11164;48.818;2.322;2023-03-31T17:20:14;6.28;;;1.42;;
21999;SDS011;11164;48.818;2.322;2023-03-31T17:22:39;5.20;;;1.08;;
21999;SDS011;11164;48.818;2.322;2023-03-31T17:25:05;5.80;;;1.13;;
21999;SDS011;11164;48.818;2.322;2023-03-31T17:27:32;6.88;;;1.10;;
21999;SDS011;11164;48.818;2.322;2023-03-31T17:29:57;3.35;;;0.88;;
21999;SDS011;11164;48.818;2.322;2023-03-31T17:32:23;5.47;;;1.05;;
21999;SDS011;11164;48.818;2.322;2023-03-31T17:34:48;8.55;;;1.50;;
21999;SDS011;11164;48.818;2.322;2023-03-31T17:37:15;9.15;;;1.38;;